Jupiter Spirit — A8ZC2 — position and weather

sailwx.info

Track history (hours):
 
Tides and Currents Weather Stations Pressure Air Temp Water Temp Dewpoint Dewpoint Depression Visibility Wind Speed Wind Dir Waves Ship Positions

Jupiter Spirit

Last reported at 2016-Aug-26 16:04 UTC. Time now 2016-Aug-28 05:11 UTC.
Position N 36°42' E 141°17'.

Length 183 m; draft 8.7 m.

Type: Cargo ship. MMSI: 636015173.

Date/timePositionNaut miles runAvg speedWind from/ knotsBaromVisibWave heightAir tempDewpointWater temp
2016-Aug-26 16:04N 36°42' E 141°17'1015.0
2016-Aug-26 15:26N 36°37' E 141°07'1614.4
2016-Aug-26 14:19N 36°29' E 140°50'10 0.6
2016-Aug-25 21:33N 36°29' E 140°38'7 7.5
2016-Aug-25 20:33N 36°26' E 140°46'6 6.1
2016-Aug-25 19:31N 36°24' E 140°54'0 0.2
2016-Aug-25 18:31N 36°24' E 140°54'15 7.4
2016-Aug-25 16:29N 36°12' E 141°06'1412.0
2016-Aug-25 15:21N 35°58' E 141°05'1012.5
2016-Aug-25 14:34N 35°48' E 141°05'1813.0
2016-Aug-25 13:09N 35°30' E 141°05'812.4
2016-Aug-25 12:30N 35°25' E 140°57'1212.5
2016-Aug-25 11:33N 35°18' E 140°45'1515.1
2016-Aug-25 10:33N 35°06' E 140°34'1615.5
2016-Aug-25 09:32N 34°59' E 140°17'1414.8
2016-Aug-25 08:34N 34°52' E 140°01'1514.0
2016-Aug-25 07:28N 34°44' E 139°45'45313.2
2016-Aug-23 21:05N 34°08' E 130°38'  
Track history (hours):
 
Tides and Currents Weather Stations Pressure Air Temp Water Temp Dewpoint Dewpoint Depression Visibility Wind Speed Wind Dir Waves Ship Positions

Jupiter Spirit

Last reported at 2016-Aug-26 16:04 UTC. Time now 2016-Aug-28 05:11 UTC.
Position N 36°42' E 141°17'.

Length 183 m; draft 8.7 m.

Type: Cargo ship. MMSI: 636015173.

Date/timePositionNaut miles runAvg speedWind from/ knotsBaromVisibWave heightAir tempDewpointWater temp
2016-Aug-26 16:04N 36°42' E 141°17'1015.0
2016-Aug-26 15:26N 36°37' E 141°07'1614.4
2016-Aug-26 14:19N 36°29' E 140°50'10 0.6
2016-Aug-25 21:33N 36°29' E 140°38'7 7.5
2016-Aug-25 20:33N 36°26' E 140°46'6 6.1
2016-Aug-25 19:31N 36°24' E 140°54'0 0.2
2016-Aug-25 18:31N 36°24' E 140°54'15 7.4
2016-Aug-25 16:29N 36°12' E 141°06'1412.0
2016-Aug-25 15:21N 35°58' E 141°05'1012.5
2016-Aug-25 14:34N 35°48' E 141°05'1813.0
2016-Aug-25 13:09N 35°30' E 141°05'812.4
2016-Aug-25 12:30N 35°25' E 140°57'1212.5
2016-Aug-25 11:33N 35°18' E 140°45'1515.1
2016-Aug-25 10:33N 35°06' E 140°34'1615.5
2016-Aug-25 09:32N 34°59' E 140°17'1414.8
2016-Aug-25 08:34N 34°52' E 140°01'1514.0
2016-Aug-25 07:28N 34°44' E 139°45'45313.2
2016-Aug-23 21:05N 34°08' E 130°38'  

Dump ship's entire track history